sensor_id;sensor_type;location;lat;lon;timestamp;pressure;altitude;pressure_sealevel;temperature;humidity
23261;BME280;11799;47.740;-3.390;2022-07-12T00:01:49;101873.19;;;22.62;66.04
23261;BME280;11799;47.740;-3.390;2022-07-12T00:04:14;101877.63;;;22.63;65.97
23261;BME280;11799;47.740;-3.390;2022-07-12T00:06:40;101869.06;;;22.59;66.03
23261;BME280;11799;47.740;-3.390;2022-07-12T00:09:05;101868.78;;;22.61;66.00
23261;BME280;11799;47.740;-3.390;2022-07-12T00:11:32;101869.34;;;22.58;66.26
23261;BME280;11799;47.740;-3.390;2022-07-12T00:13:57;101874.59;;;22.59;66.43
23261;BME280;11799;47.740;-3.390;2022-07-12T00:16:23;101876.53;;;22.59;65.99
23261;BME280;11799;47.740;-3.390;2022-07-12T00:18:48;101877.38;;;22.59;65.69
23261;BME280;11799;47.740;-3.390;2022-07-12T00:21:14;101863.81;;;22.58;65.85
23261;BME280;11799;47.740;-3.390;2022-07-12T00:23:40;101858.00;;;22.54;65.83
23261;BME280;11799;47.740;-3.390;2022-07-12T00:26:05;101868.03;;;22.50;66.12
23261;BME280;11799;47.740;-3.390;2022-07-12T00:28:31;101855.28;;;22.49;66.26
23261;BME280;11799;47.740;-3.390;2022-07-12T00:30:57;101856.47;;;22.43;66.85
23261;BME280;11799;47.740;-3.390;2022-07-12T00:33:23;101855.03;;;22.46;66.37
23261;BME280;11799;47.740;-3.390;2022-07-12T00:35:49;101852.56;;;22.44;66.61
23261;BME280;11799;47.740;-3.390;2022-07-12T00:38:14;101858.66;;;22.46;66.36
23261;BME280;11799;47.740;-3.390;2022-07-12T00:40:40;101857.88;;;22.40;66.41
23261;BME280;11799;47.740;-3.390;2022-07-12T00:43:05;101863.16;;;22.37;66.75
23261;BME280;11799;47.740;-3.390;2022-07-12T00:45:31;101861.84;;;22.29;67.09
23261;BME280;11799;47.740;-3.390;2022-07-12T00:47:57;101864.91;;;22.28;66.96
23261;BME280;11799;47.740;-3.390;2022-07-12T00:50:23;101866.63;;;22.19;67.69
23261;BME280;11799;47.740;-3.390;2022-07-12T00:52:51;101866.13;;;22.12;67.85
23261;BME280;11799;47.740;-3.390;2022-07-12T00:55:19;101868.63;;;22.13;67.90
23261;BME280;11799;47.740;-3.390;2022-07-12T00:57:46;101872.78;;;22.10;67.81
23261;BME280;11799;47.740;-3.390;2022-07-12T01:00:28;101872.56;;;22.02;68.11
23261;BME280;11799;47.740;-3.390;2022-07-12T01:02:55;101867.59;;;22.04;68.48
23261;BME280;11799;47.740;-3.390;2022-07-12T01:05:21;101856.53;;;21.99;68.47
23261;BME280;11799;47.740;-3.390;2022-07-12T01:07:47;101860.16;;;21.94;68.61
23261;BME280;11799;47.740;-3.390;2022-07-12T01:10:14;101867.34;;;21.95;68.36
23261;BME280;11799;47.740;-3.390;2022-07-12T01:12:40;101862.72;;;21.86;68.69
23261;BME280;11799;47.740;-3.390;2022-07-12T01:15:06;101861.31;;;21.88;68.67
23261;BME280;11799;47.740;-3.390;2022-07-12T01:17:33;101863.25;;;21.83;69.07
23261;BME280;11799;47.740;-3.390;2022-07-12T01:19:59;101864.66;;;21.80;69.07
23261;BME280;11799;47.740;-3.390;2022-07-12T01:22:27;101864.41;;;21.76;69.45
23261;BME280;11799;47.740;-3.390;2022-07-12T01:24:55;101870.78;;;21.77;69.10
23261;BME280;11799;47.740;-3.390;2022-07-12T01:27:21;101863.34;;;21.72;69.37
23261;BME280;11799;47.740;-3.390;2022-07-12T01:29:46;101870.25;;;21.70;70.61
23261;BME280;11799;47.740;-3.390;2022-07-12T01:32:12;101868.94;;;21.62;69.80
23261;BME280;11799;47.740;-3.390;2022-07-12T01:37:18;101866.22;;;21.52;70.41
23261;BME280;11799;47.740;-3.390;2022-07-12T01:39:45;101868.72;;;21.48;71.20
23261;BME280;11799;47.740;-3.390;2022-07-12T01:42:10;101871.47;;;21.48;71.26
23261;BME280;11799;47.740;-3.390;2022-07-12T01:44:36;101862.34;;;21.48;71.02
23261;BME280;11799;47.740;-3.390;2022-07-12T01:47:02;101866.84;;;21.39;71.34
23261;BME280;11799;47.740;-3.390;2022-07-12T01:49:28;101866.56;;;21.40;70.88
23261;BME280;11799;47.740;-3.390;2022-07-12T01:51:55;101867.41;;;21.36;71.90
23261;BME280;11799;47.740;-3.390;2022-07-12T01:54:26;101868.22;;;21.36;71.82
23261;BME280;11799;47.740;-3.390;2022-07-12T01:56:52;101862.75;;;21.21;72.49
23261;BME280;11799;47.740;-3.390;2022-07-12T01:59:21;101884.03;;;21.15;72.66
23261;BME280;11799;47.740;-3.390;2022-07-12T02:01:47;101882.38;;;21.20;73.07
23261;BME280;11799;47.740;-3.390;2022-07-12T02:04:16;101889.56;;;21.10;72.82
23261;BME280;11799;47.740;-3.390;2022-07-12T02:06:44;101895.94;;;21.11;73.14
23261;BME280;11799;47.740;-3.390;2022-07-12T02:09:09;101882.66;;;21.13;73.36
23261;BME280;11799;47.740;-3.390;2022-07-12T02:11:35;101896.50;;;21.08;73.34
23261;BME280;11799;47.740;-3.390;2022-07-12T02:14:00;101895.63;;;21.12;72.98
23261;BME280;11799;47.740;-3.390;2022-07-12T02:16:26;101895.09;;;21.10;72.78
23261;BME280;11799;47.740;-3.390;2022-07-12T02:18:51;101904.50;;;21.09;73.48
23261;BME280;11799;47.740;-3.390;2022-07-12T02:21:17;101909.47;;;21.07;73.55
23261;BME280;11799;47.740;-3.390;2022-07-12T02:23:42;101899.28;;;21.03;73.65
23261;BME280;11799;47.740;-3.390;2022-07-12T02:26:08;101901.78;;;20.94;73.92
23261;BME280;11799;47.740;-3.390;2022-07-12T02:28:34;101896.81;;;20.96;74.12
23261;BME280;11799;47.740;-3.390;2022-07-12T02:30:59;101905.94;;;20.92;74.30
23261;BME280;11799;47.740;-3.390;2022-07-12T02:33:25;101905.38;;;20.90;74.63
23261;BME280;11799;47.740;-3.390;2022-07-12T02:35:51;101905.09;;;20.81;74.94
23261;BME280;11799;47.740;-3.390;2022-07-12T02:38:16;101899.59;;;20.81;75.20
23261;BME280;11799;47.740;-3.390;2022-07-12T02:40:42;101915.31;;;20.80;75.04
23261;BME280;11799;47.740;-3.390;2022-07-12T02:43:23;101911.22;;;20.68;75.59
23261;BME280;11799;47.740;-3.390;2022-07-12T02:45:53;101910.09;;;20.74;75.68
23261;BME280;11799;47.740;-3.390;2022-07-12T02:48:19;101915.63;;;20.69;75.24
23261;BME280;11799;47.740;-3.390;2022-07-12T02:50:45;101912.59;;;20.65;75.74
23261;BME280;11799;47.740;-3.390;2022-07-12T02:53:12;101906.81;;;20.57;76.08
23261;BME280;11799;47.740;-3.390;2022-07-12T02:55:37;101911.78;;;20.65;76.05
23261;BME280;11799;47.740;-3.390;2022-07-12T02:58:04;101912.06;;;20.58;76.35
23261;BME280;11799;47.740;-3.390;2022-07-12T03:00:34;101901.56;;;20.60;75.80
23261;BME280;11799;47.740;-3.390;2022-07-12T03:03:01;101900.72;;;20.65;75.77
23261;BME280;11799;47.740;-3.390;2022-07-12T03:05:26;101891.06;;;20.62;75.57
23261;BME280;11799;47.740;-3.390;2022-07-12T03:07:52;101898.50;;;20.41;76.79
23261;BME280;11799;47.740;-3.390;2022-07-12T03:10:18;101901.81;;;20.43;76.90
23261;BME280;11799;47.740;-3.390;2022-07-12T03:12:44;101901.28;;;20.41;76.97
23261;BME280;11799;47.740;-3.390;2022-07-12T03:15:10;101900.41;;;20.36;77.63
23261;BME280;11799;47.740;-3.390;2022-07-12T03:17:36;101900.97;;;20.38;77.22
23261;BME280;11799;47.740;-3.390;2022-07-12T03:20:03;101903.72;;;20.33;77.63
23261;BME280;11799;47.740;-3.390;2022-07-12T03:22:30;101903.72;;;20.38;77.38
23261;BME280;11799;47.740;-3.390;2022-07-12T03:24:55;101907.03;;;20.35;77.92
23261;BME280;11799;47.740;-3.390;2022-07-12T03:27:21;101905.94;;;20.36;77.67
23261;BME280;11799;47.740;-3.390;2022-07-12T03:29:46;101907.59;;;20.32;77.84
23261;BME280;11799;47.740;-3.390;2022-07-12T03:32:12;101901.81;;;20.18;78.74
23261;BME280;11799;47.740;-3.390;2022-07-12T03:34:38;101905.66;;;20.27;78.56
23261;BME280;11799;47.740;-3.390;2022-07-12T03:37:04;101902.63;;;20.23;78.71
23261;BME280;11799;47.740;-3.390;2022-07-12T03:39:30;101900.13;;;20.12;79.05
23261;BME280;11799;47.740;-3.390;2022-07-12T03:41:55;101894.09;;;20.15;79.27
23261;BME280;11799;47.740;-3.390;2022-07-12T03:44:21;101900.97;;;20.22;78.35
23261;BME280;11799;47.740;-3.390;2022-07-12T03:46:46;101903.75;;;20.22;78.69
23261;BME280;11799;47.740;-3.390;2022-07-12T03:49:13;101901.81;;;20.18;78.91
23261;BME280;11799;47.740;-3.390;2022-07-12T03:51:39;101896.28;;;20.13;79.72
23261;BME280;11799;47.740;-3.390;2022-07-12T03:54:06;101904.25;;;20.09;80.03
23261;BME280;11799;47.740;-3.390;2022-07-12T03:56:36;101902.88;;;20.07;79.84
23261;BME280;11799;47.740;-3.390;2022-07-12T03:59:20;101907.56;;;20.06;80.12
23261;BME280;11799;47.740;-3.390;2022-07-12T04:01:46;101909.22;;;20.02;80.36
23261;BME280;11799;47.740;-3.390;2022-07-12T04:04:12;101908.38;;;20.02;80.71
23261;BME280;11799;47.740;-3.390;2022-07-12T04:06:38;101910.03;;;20.03;80.28
23261;BME280;11799;47.740;-3.390;2022-07-12T04:09:07;101917.22;;;19.99;80.64
23261;BME280;11799;47.740;-3.390;2022-07-12T04:11:33;101917.22;;;19.93;80.98
23261;BME280;11799;47.740;-3.390;2022-07-12T04:13:59;101922.16;;;19.91;81.15
23261;BME280;11799;47.740;-3.390;2022-07-12T04:16:25;101919.69;;;19.90;81.16
23261;BME280;11799;47.740;-3.390;2022-07-12T04:18:51;101921.91;;;19.93;80.88
23261;BME280;11799;47.740;-3.390;2022-07-12T04:21:18;101927.69;;;19.91;81.13
23261;BME280;11799;47.740;-3.390;2022-07-12T04:23:44;101929.88;;;19.89;81.32
23261;BME280;11799;47.740;-3.390;2022-07-12T04:26:09;101931.81;;;19.84;81.35
23261;BME280;11799;47.740;-3.390;2022-07-12T04:28:35;101934.28;;;19.85;81.54
23261;BME280;11799;47.740;-3.390;2022-07-12T04:31:01;101931.53;;;19.80;81.46
23261;BME280;11799;47.740;-3.390;2022-07-12T04:33:27;101938.72;;;19.86;81.75
23261;BME280;11799;47.740;-3.390;2022-07-12T04:35:56;101927.94;;;19.85;81.25
23261;BME280;11799;47.740;-3.390;2022-07-12T04:38:21;101924.66;;;19.93;80.57
23261;BME280;11799;47.740;-3.390;2022-07-12T04:40:47;101937.06;;;19.96;80.59
23261;BME280;11799;47.740;-3.390;2022-07-12T04:43:13;101934.31;;;19.96;80.32
23261;BME280;11799;47.740;-3.390;2022-07-12T04:45:38;101932.38;;;20.01;80.00
23261;BME280;11799;47.740;-3.390;2022-07-12T04:48:04;101938.72;;;20.02;79.83
23261;BME280;11799;47.740;-3.390;2022-07-12T04:50:30;101932.41;;;20.06;79.30
23261;BME280;11799;47.740;-3.390;2022-07-12T04:52:55;101932.94;;;20.03;79.62
23261;BME280;11799;47.740;-3.390;2022-07-12T04:55:21;101926.03;;;20.06;80.17
23261;BME280;11799;47.740;-3.390;2022-07-12T04:57:47;101933.22;;;20.02;80.02
23261;BME280;11799;47.740;-3.390;2022-07-12T05:00:13;101927.44;;;20.08;79.82
23261;BME280;11799;47.740;-3.390;2022-07-12T05:02:38;101934.91;;;20.13;79.28
23261;BME280;11799;47.740;-3.390;2022-07-12T05:05:04;101937.63;;;20.08;79.04
23261;BME280;11799;47.740;-3.390;2022-07-12T05:07:30;101938.78;;;20.22;78.42
23261;BME280;11799;47.740;-3.390;2022-07-12T05:09:56;101941.00;;;20.25;78.57
23261;BME280;11799;47.740;-3.390;2022-07-12T05:12:21;101945.69;;;20.30;78.39
23261;BME280;11799;47.740;-3.390;2022-07-12T05:14:47;101944.56;;;20.31;78.71
23261;BME280;11799;47.740;-3.390;2022-07-12T05:17:13;101939.63;;;20.33;77.97
23261;BME280;11799;47.740;-3.390;2022-07-12T05:19:38;101949.00;;;20.37;78.58
23261;BME280;11799;47.740;-3.390;2022-07-12T05:22:04;101948.47;;;20.45;78.48
23261;BME280;11799;47.740;-3.390;2022-07-12T05:24:30;101952.66;;;20.52;78.47
23261;BME280;11799;47.740;-3.390;2022-07-12T05:26:55;101952.34;;;20.64;76.81
23261;BME280;11799;47.740;-3.390;2022-07-12T05:29:21;101952.91;;;20.81;76.71
23261;BME280;11799;47.740;-3.390;2022-07-12T05:31:47;101963.94;;;20.92;75.90
23261;BME280;11799;47.740;-3.390;2022-07-12T05:34:13;101955.09;;;20.95;76.47
23261;BME280;11799;47.740;-3.390;2022-07-12T05:36:39;101957.81;;;21.15;75.08
23261;BME280;11799;47.740;-3.390;2022-07-12T05:39:05;101961.63;;;21.44;73.27
23261;BME280;11799;47.740;-3.390;2022-07-12T05:41:30;101961.91;;;21.53;72.52
23261;BME280;11799;47.740;-3.390;2022-07-12T05:43:56;101951.97;;;22.06;70.32
23261;BME280;11799;47.740;-3.390;2022-07-12T05:46:21;101955.66;;;22.70;66.23
23261;BME280;11799;47.740;-3.390;2022-07-12T05:48:47;101953.97;;;23.56;63.54
23261;BME280;11799;47.740;-3.390;2022-07-12T05:51:14;101956.63;;;23.85;60.17
23261;BME280;11799;47.740;-3.390;2022-07-12T05:53:58;101964.13;;;23.84;61.06
23261;BME280;11799;47.740;-3.390;2022-07-12T05:56:23;101964.22;;;23.31;61.88
23261;BME280;11799;47.740;-3.390;2022-07-12T05:58:49;101965.44;;;23.20;62.74
23261;BME280;11799;47.740;-3.390;2022-07-12T06:01:16;101972.81;;;23.54;61.87
23261;BME280;11799;47.740;-3.390;2022-07-12T06:03:42;101964.13;;;23.84;60.87
23261;BME280;11799;47.740;-3.390;2022-07-12T06:06:08;101966.53;;;24.34;59.25
23261;BME280;11799;47.740;-3.390;2022-07-12T06:08:34;101968.00;;;24.64;58.51
23261;BME280;11799;47.740;-3.390;2022-07-12T06:10:59;101977.59;;;25.04;56.21
23261;BME280;11799;47.740;-3.390;2022-07-12T06:13:25;101975.78;;;25.54;55.15
23261;BME280;11799;47.740;-3.390;2022-07-12T06:15:51;101976.91;;;25.26;55.80
23261;BME280;11799;47.740;-3.390;2022-07-12T06:18:16;101978.34;;;25.23;54.46
23261;BME280;11799;47.740;-3.390;2022-07-12T06:20:42;101971.94;;;25.23;54.58
23261;BME280;11799;47.740;-3.390;2022-07-12T06:23:08;101980.94;;;25.47;53.76
23261;BME280;11799;47.740;-3.390;2022-07-12T06:25:33;101980.91;;;25.61;52.70
23261;BME280;11799;47.740;-3.390;2022-07-12T06:28:04;101984.84;;;25.46;52.73
23261;BME280;11799;47.740;-3.390;2022-07-12T06:30:29;101989.38;;;25.56;52.38
23261;BME280;11799;47.740;-3.390;2022-07-12T06:32:55;101986.28;;;25.57;51.78
23261;BME280;11799;47.740;-3.390;2022-07-12T06:35:20;101981.28;;;25.73;51.37
23261;BME280;11799;47.740;-3.390;2022-07-12T06:37:46;101983.63;;;25.79;51.54
23261;BME280;11799;47.740;-3.390;2022-07-12T06:40:12;101992.28;;;25.92;51.35
23261;BME280;11799;47.740;-3.390;2022-07-12T06:42:37;101995.41;;;25.76;51.52
23261;BME280;11799;47.740;-3.390;2022-07-12T06:45:04;101998.75;;;26.01;50.41
23261;BME280;11799;47.740;-3.390;2022-07-12T06:47:30;101996.69;;;25.93;51.77
23261;BME280;11799;47.740;-3.390;2022-07-12T06:49:56;101991.66;;;26.45;50.82
23261;BME280;11799;47.740;-3.390;2022-07-12T06:52:22;101999.69;;;26.91;49.25
23261;BME280;11799;47.740;-3.390;2022-07-12T06:54:47;101994.81;;;27.58;47.58
23261;BME280;11799;47.740;-3.390;2022-07-12T06:57:13;101997.31;;;27.69;46.39
23261;BME280;11799;47.740;-3.390;2022-07-12T06:59:38;101994.16;;;28.18;46.12
23261;BME280;11799;47.740;-3.390;2022-07-12T07:02:04;101997.94;;;28.74;44.53
23261;BME280;11799;47.740;-3.390;2022-07-12T07:04:30;102007.63;;;29.03;42.77
23261;BME280;11799;47.740;-3.390;2022-07-12T07:06:55;102005.44;;;29.17;43.47
23261;BME280;11799;47.740;-3.390;2022-07-12T07:09:21;102009.88;;;29.65;41.43
23261;BME280;11799;47.740;-3.390;2022-07-12T07:11:47;102012.22;;;30.22;41.08
23261;BME280;11799;47.740;-3.390;2022-07-12T07:14:12;102013.28;;;30.71;39.39
23261;BME280;11799;47.740;-3.390;2022-07-12T07:16:38;102020.03;;;30.49;39.24
23261;BME280;11799;47.740;-3.390;2022-07-12T07:19:04;102022.66;;;30.54;40.35
23261;BME280;11799;47.740;-3.390;2022-07-12T07:21:31;102016.22;;;31.08;38.50
23261;BME280;11799;47.740;-3.390;2022-07-12T07:23:57;102017.50;;;31.10;38.74
23261;BME280;11799;47.740;-3.390;2022-07-12T07:26:22;102019.22;;;31.48;37.44
23261;BME280;11799;47.740;-3.390;2022-07-12T07:28:48;102012.91;;;31.87;37.44
23261;BME280;11799;47.740;-3.390;2022-07-12T07:31:36;102019.28;;;31.72;36.95
23261;BME280;11799;47.740;-3.390;2022-07-12T07:34:01;102029.06;;;31.54;36.70
23261;BME280;11799;47.740;-3.390;2022-07-12T07:36:27;102025.47;;;31.78;36.60
23261;BME280;11799;47.740;-3.390;2022-07-12T07:38:53;102027.03;;;32.40;36.27
23261;BME280;11799;47.740;-3.390;2022-07-12T07:41:18;102027.91;;;32.56;36.44
23261;BME280;11799;47.740;-3.390;2022-07-12T07:43:44;102029.63;;;33.16;35.37
23261;BME280;11799;47.740;-3.390;2022-07-12T07:46:10;102032.00;;;33.14;35.60
23261;BME280;11799;47.740;-3.390;2022-07-12T07:48:36;102026.72;;;32.97;35.23
23261;BME280;11799;47.740;-3.390;2022-07-12T07:51:01;102030.94;;;33.51;33.86
23261;BME280;11799;47.740;-3.390;2022-07-12T07:53:27;102040.59;;;32.50;34.44
23261;BME280;11799;47.740;-3.390;2022-07-12T07:55:52;102048.75;;;32.03;34.92
23261;BME280;11799;47.740;-3.390;2022-07-12T07:58:18;102045.53;;;32.81;35.42
23261;BME280;11799;47.740;-3.390;2022-07-12T08:00:48;102049.66;;;32.71;34.98
23261;BME280;11799;47.740;-3.390;2022-07-12T08:03:14;102043.50;;;32.53;35.12
23261;BME280;11799;47.740;-3.390;2022-07-12T08:05:40;102042.44;;;33.14;33.41
23261;BME280;11799;47.740;-3.390;2022-07-12T08:08:05;102049.53;;;33.08;34.84
23261;BME280;11799;47.740;-3.390;2022-07-12T08:10:31;102058.44;;;33.10;34.05
23261;BME280;11799;47.740;-3.390;2022-07-12T08:12:57;102051.28;;;32.44;35.06
23261;BME280;11799;47.740;-3.390;2022-07-12T08:15:23;102045.81;;;33.19;34.58
23261;BME280;11799;47.740;-3.390;2022-07-12T08:17:48;102055.31;;;32.99;35.22
23261;BME280;11799;47.740;-3.390;2022-07-12T08:20:14;102057.78;;;33.16;34.44
23261;BME280;11799;47.740;-3.390;2022-07-12T08:22:43;102057.31;;;32.99;34.49
23261;BME280;11799;47.740;-3.390;2022-07-12T08:25:10;102060.38;;;32.94;34.69
23261;BME280;11799;47.740;-3.390;2022-07-12T08:27:36;102068.16;;;33.12;34.40
23261;BME280;11799;47.740;-3.390;2022-07-12T08:30:02;102060.88;;;33.27;35.07
23261;BME280;11799;47.740;-3.390;2022-07-12T08:32:27;102073.41;;;33.14;34.03
23261;BME280;11799;47.740;-3.390;2022-07-12T08:34:53;102072.59;;;32.45;35.83
23261;BME280;11799;47.740;-3.390;2022-07-12T08:37:18;102073.44;;;32.21;35.53
23261;BME280;11799;47.740;-3.390;2022-07-12T08:39:44;102070.88;;;32.41;36.02
23261;BME280;11799;47.740;-3.390;2022-07-12T08:42:14;102079.91;;;32.34;35.32
23261;BME280;11799;47.740;-3.390;2022-07-12T08:44:40;102074.88;;;32.28;36.21
23261;BME280;11799;47.740;-3.390;2022-07-12T08:47:09;102074.88;;;31.91;35.85
23261;BME280;11799;47.740;-3.390;2022-07-12T08:49:35;102076.59;;;32.20;37.15
23261;BME280;11799;47.740;-3.390;2022-07-12T08:52:24;102081.66;;;31.90;37.12
23261;BME280;11799;47.740;-3.390;2022-07-12T08:54:50;102083.09;;;31.96;37.09
23261;BME280;11799;47.740;-3.390;2022-07-12T08:57:30;102088.81;;;31.75;38.14
23261;BME280;11799;47.740;-3.390;2022-07-12T09:00:00;102082.94;;;31.68;36.82
23261;BME280;11799;47.740;-3.390;2022-07-12T09:02:26;102082.69;;;31.61;36.07
23261;BME280;11799;47.740;-3.390;2022-07-12T09:05:08;102084.34;;;31.62;37.56
23261;BME280;11799;47.740;-3.390;2022-07-12T09:07:37;102081.38;;;31.46;36.52
23261;BME280;11799;47.740;-3.390;2022-07-12T09:10:08;102094.25;;;31.14;36.78
23261;BME280;11799;47.740;-3.390;2022-07-12T09:12:35;102084.88;;;31.43;36.18
23261;BME280;11799;47.740;-3.390;2022-07-12T09:15:11;102085.81;;;31.14;37.94
23261;BME280;11799;47.740;-3.390;2022-07-12T09:17:37;102086.75;;;31.39;36.48
23261;BME280;11799;47.740;-3.390;2022-07-12T09:20:03;102078.84;;;31.20;36.36
23261;BME280;11799;47.740;-3.390;2022-07-12T09:22:29;102082.72;;;30.95;36.50
23261;BME280;11799;47.740;-3.390;2022-07-12T09:24:55;102087.31;;;31.12;35.67
23261;BME280;11799;47.740;-3.390;2022-07-12T09:27:26;102083.66;;;30.99;36.25
23261;BME280;11799;47.740;-3.390;2022-07-12T09:29:52;102081.91;;;30.73;36.23
23261;BME280;11799;47.740;-3.390;2022-07-12T09:32:18;102082.50;;;31.00;37.13
23261;BME280;11799;47.740;-3.390;2022-07-12T09:35:03;102082.03;;;30.56;36.35
23261;BME280;11799;47.740;-3.390;2022-07-12T09:37:48;102093.03;;;31.03;36.39
23261;BME280;11799;47.740;-3.390;2022-07-12T09:40:14;102086.44;;;30.66;36.98
23261;BME280;11799;47.740;-3.390;2022-07-12T09:42:40;102090.53;;;30.68;36.75
23261;BME280;11799;47.740;-3.390;2022-07-12T09:45:10;102092.09;;;30.57;36.75
23261;BME280;11799;47.740;-3.390;2022-07-12T09:47:36;102088.69;;;30.72;36.94
23261;BME280;11799;47.740;-3.390;2022-07-12T09:50:03;102088.94;;;31.00;36.89
23261;BME280;11799;47.740;-3.390;2022-07-12T09:52:32;102088.31;;;30.32;36.36
23261;BME280;11799;47.740;-3.390;2022-07-12T09:55:01;102097.56;;;30.54;36.60
23261;BME280;11799;47.740;-3.390;2022-07-12T09:57:31;102096.75;;;30.53;35.78
23261;BME280;11799;47.740;-3.390;2022-07-12T09:59:58;102099.22;;;30.55;36.60
23261;BME280;11799;47.740;-3.390;2022-07-12T10:02:24;102099.66;;;30.36;36.75
23261;BME280;11799;47.740;-3.390;2022-07-12T10:04:52;102103.00;;;30.50;36.26
23261;BME280;11799;47.740;-3.390;2022-07-12T10:07:18;102102.31;;;30.62;37.54
23261;BME280;11799;47.740;-3.390;2022-07-12T10:09:46;102106.81;;;30.75;36.06
23261;BME280;11799;47.740;-3.390;2022-07-12T10:12:16;102108.78;;;30.95;36.25
23261;BME280;11799;47.740;-3.390;2022-07-12T10:14:43;102105.38;;;30.90;35.09
23261;BME280;11799;47.740;-3.390;2022-07-12T10:17:10;102098.78;;;31.07;35.37
23261;BME280;11799;47.740;-3.390;2022-07-12T10:19:37;102103.25;;;31.53;33.75
23261;BME280;11799;47.740;-3.390;2022-07-12T10:22:04;102105.34;;;31.31;34.26
23261;BME280;11799;47.740;-3.390;2022-07-12T10:24:44;102115.69;;;31.19;34.83
23261;BME280;11799;47.740;-3.390;2022-07-12T10:29:42;102105.56;;;31.39;33.76
23261;BME280;11799;47.740;-3.390;2022-07-12T10:32:33;102115.44;;;30.91;32.90
23261;BME280;11799;47.740;-3.390;2022-07-12T10:37:25;102119.50;;;30.60;34.28
23261;BME280;11799;47.740;-3.390;2022-07-12T10:42:35;102114.94;;;31.10;33.77
23261;BME280;11799;47.740;-3.390;2022-07-12T10:45:15;102117.09;;;31.58;34.16
23261;BME280;11799;47.740;-3.390;2022-07-12T10:47:54;102118.41;;;31.60;33.49
23261;BME280;11799;47.740;-3.390;2022-07-12T10:53:33;102117.75;;;31.43;32.69
23261;BME280;11799;47.740;-3.390;2022-07-12T10:58:42;102112.59;;;31.78;33.03
23261;BME280;11799;47.740;-3.390;2022-07-12T11:01:23;102110.97;;;31.56;33.18
23261;BME280;11799;47.740;-3.390;2022-07-12T11:03:50;102104.72;;;31.71;33.23
23261;BME280;11799;47.740;-3.390;2022-07-12T11:06:18;102106.59;;;31.79;34.34
23261;BME280;11799;47.740;-3.390;2022-07-12T11:08:58;102100.41;;;31.98;33.00
23261;BME280;11799;47.740;-3.390;2022-07-12T11:11:32;102107.66;;;32.23;32.42
23261;BME280;11799;47.740;-3.390;2022-07-12T11:13:59;102099.81;;;32.17;32.66
23261;BME280;11799;47.740;-3.390;2022-07-12T11:16:26;102101.25;;;31.99;32.31
23261;BME280;11799;47.740;-3.390;2022-07-12T11:18:52;102092.09;;;32.02;32.74
23261;BME280;11799;47.740;-3.390;2022-07-12T11:21:19;102103.63;;;32.61;31.95
23261;BME280;11799;47.740;-3.390;2022-07-12T11:23:45;102099.09;;;32.44;31.77
23261;BME280;11799;47.740;-3.390;2022-07-12T11:26:12;102101.19;;;32.23;31.78
23261;BME280;11799;47.740;-3.390;2022-07-12T11:28:39;102097.84;;;32.05;31.71
23261;BME280;11799;47.740;-3.390;2022-07-12T11:31:09;102101.47;;;31.81;32.53
23261;BME280;11799;47.740;-3.390;2022-07-12T11:33:38;102092.31;;;32.21;33.06
23261;BME280;11799;47.740;-3.390;2022-07-12T11:36:06;102095.97;;;32.09;31.63
23261;BME280;11799;47.740;-3.390;2022-07-12T11:38:32;102097.44;;;31.70;33.14
23261;BME280;11799;47.740;-3.390;2022-07-12T11:41:01;102087.03;;;32.19;33.34
23261;BME280;11799;47.740;-3.390;2022-07-12T11:43:27;102092.19;;;32.17;32.16
23261;BME280;11799;47.740;-3.390;2022-07-12T11:45:54;102088.00;;;32.76;32.51
23261;BME280;11799;47.740;-3.390;2022-07-12T11:48:21;102084.69;;;32.86;33.13
23261;BME280;11799;47.740;-3.390;2022-07-12T11:50:49;102087.75;;;32.81;30.94
23261;BME280;11799;47.740;-3.390;2022-07-12T11:55:44;102080.84;;;32.78;32.78
23261;BME280;11799;47.740;-3.390;2022-07-12T11:58:09;102078.44;;;32.65;31.64
23261;BME280;11799;47.740;-3.390;2022-07-12T12:00:35;102084.59;;;33.26;31.20
23261;BME280;11799;47.740;-3.390;2022-07-12T12:03:01;102076.69;;;33.16;31.50
23261;BME280;11799;47.740;-3.390;2022-07-12T12:05:27;102083.34;;;33.24;31.39
23261;BME280;11799;47.740;-3.390;2022-07-12T12:07:53;102073.78;;;33.12;30.41
23261;BME280;11799;47.740;-3.390;2022-07-12T12:10:18;102078.88;;;33.23;31.03
23261;BME280;11799;47.740;-3.390;2022-07-12T12:20:37;102071.03;;;33.00;30.45
23261;BME280;11799;47.740;-3.390;2022-07-12T12:23:14;102072.06;;;33.24;32.14
23261;BME280;11799;47.740;-3.390;2022-07-12T12:25:41;102065.88;;;33.18;29.47
23261;BME280;11799;47.740;-3.390;2022-07-12T12:28:07;102071.34;;;33.27;30.45
23261;BME280;11799;47.740;-3.390;2022-07-12T12:30:34;102064.84;;;33.54;30.35
23261;BME280;11799;47.740;-3.390;2022-07-12T12:33:03;102060.03;;;33.70;30.88
23261;BME280;11799;47.740;-3.390;2022-07-12T12:35:33;102054.94;;;33.60;29.70
23261;BME280;11799;47.740;-3.390;2022-07-12T12:38:01;102050.31;;;33.36;30.52
23261;BME280;11799;47.740;-3.390;2022-07-12T12:40:31;102051.50;;;33.51;29.50
23261;BME280;11799;47.740;-3.390;2022-07-12T12:45:47;102050.06;;;32.98;30.87
23261;BME280;11799;47.740;-3.390;2022-07-12T12:48:18;102056.94;;;33.44;29.50
23261;BME280;11799;47.740;-3.390;2022-07-12T12:50:45;102052.66;;;33.82;29.73
23261;BME280;11799;47.740;-3.390;2022-07-12T12:53:18;102050.13;;;33.76;29.37
23261;BME280;11799;47.740;-3.390;2022-07-12T12:55:46;102042.38;;;34.05;29.98
23261;BME280;11799;47.740;-3.390;2022-07-12T12:58:13;102042.31;;;34.01;29.25
23261;BME280;11799;47.740;-3.390;2022-07-12T13:00:41;102039.94;;;34.23;29.67
23261;BME280;11799;47.740;-3.390;2022-07-12T13:03:08;102041.72;;;34.85;29.68
23261;BME280;11799;47.740;-3.390;2022-07-12T13:05:35;102040.50;;;34.67;28.91
23261;BME280;11799;47.740;-3.390;2022-07-12T13:08:02;102039.41;;;35.10;29.44
23261;BME280;11799;47.740;-3.390;2022-07-12T13:10:28;102040.97;;;34.88;29.72